Time;durP1;ratioP1;P1;durP2;ratioP2;P2;SDS_P1;SDS_P2;PMS_P1;PMS_P2;Temp;Humidity;BMP_temperature;BMP_pressure;BME280_temperature;BME280_humidity;BME280_pressure;Samples;Min_cycle;Max_cycle;Signal;HPM_P1;HPM_P2
2021/01/20 00:00:09;;;;;;;0.73;0.30;;;1.70;99.90;;;;;;5009142;28;20179;-79
2021/01/20 00:02:36;;;;;;;0.13;0.13;;;1.70;99.90;;;;;;5011390;28;20263;-79
2021/01/20 00:05:03;;;;;;;0.10;0.10;;;1.70;99.90;;;;;;5009516;28;20243;-79
2021/01/20 00:07:29;;;;;;;0.07;0.07;;;1.90;99.90;;;;;;5011452;28;20196;-80
2021/01/20 00:09:54;;;;;;;0.37;0.37;;;2.00;99.90;;;;;;5009947;28;20179;-81
2021/01/20 00:12:20;;;;;;;0.40;0.20;;;2.10;99.90;;;;;;5009744;28;20196;-80
2021/01/20 00:14:46;;;;;;;0.47;0.47;;;2.10;99.90;;;;;;5010554;28;20682;-79
2021/01/20 00:17:13;;;;;;;0.73;0.33;;;2.20;99.90;;;;;;5010871;28;20234;-80
2021/01/20 00:19:38;;;;;;;0.10;0.10;;;2.20;99.90;;;;;;5010347;28;20197;-82
2021/01/20 00:22:04;;;;;;;0.20;0.20;;;2.30;99.90;;;;;;5013946;28;20657;-82
2021/01/20 00:24:29;;;;;;;0.10;0.10;;;2.40;99.90;;;;;;5014385;28;20532;-82
2021/01/20 00:26:55;;;;;;;0.43;0.10;;;2.40;99.90;;;;;;5013013;28;20191;-80
2021/01/20 00:29:20;;;;;;;0.10;0.10;;;2.40;99.90;;;;;;5013952;28;20212;-80
2021/01/20 00:31:46;;;;;;;0.10;0.10;;;2.30;99.90;;;;;;5013536;28;20191;-80
2021/01/20 00:34:12;;;;;;;1.37;0.73;;;2.00;99.90;;;;;;5013301;28;20199;-80
2021/01/20 00:36:37;;;;;;;0.30;0.30;;;2.10;99.90;;;;;;5012687;28;20210;-80
2021/01/20 00:39:04;;;;;;;1.87;0.47;;;2.10;99.90;;;;;;5015665;28;20273;-79
2021/01/20 00:41:29;;;;;;;0.20;0.20;;;2.00;99.90;;;;;;5012248;28;20190;-80
2021/01/20 00:43:55;;;;;;;0.50;0.50;;;1.90;99.90;;;;;;5013126;28;20207;-80
2021/01/20 00:46:20;;;;;;;0.10;0.10;;;1.80;99.90;;;;;;5013644;28;20272;-80
2021/01/20 00:48:46;;;;;;;0.20;0.20;;;1.80;99.90;;;;;;5013223;28;20213;-80
2021/01/20 00:51:13;;;;;;;0.20;0.20;;;1.90;99.90;;;;;;5012491;28;20282;-80
2021/01/20 00:53:39;;;;;;;0.40;0.40;;;1.90;99.90;;;;;;5013775;28;20204;-81
2021/01/20 00:56:06;;;;;;;0.10;0.10;;;1.80;99.90;;;;;;5012786;28;20527;-80
2021/01/20 00:58:31;;;;;;;0.07;0.07;;;1.80;99.90;;;;;;5013642;28;20554;-79
2021/01/20 01:00:57;;;;;;;0.10;0.10;;;1.90;99.90;;;;;;5011063;28;20241;-80
2021/01/20 01:03:23;;;;;;;0.50;0.50;;;1.80;99.90;;;;;;5013183;28;20214;-77
2021/01/20 01:05:48;;;;;;;0.50;0.50;;;1.90;99.90;;;;;;5013174;28;20557;-80
2021/01/20 01:08:14;;;;;;;0.20;0.20;;;1.90;99.90;;;;;;5012317;28;20572;-80
2021/01/20 01:10:39;;;;;;;0.17;0.17;;;2.00;99.90;;;;;;5011397;28;20187;-80
2021/01/20 01:13:05;;;;;;;0.10;0.10;;;1.80;99.90;;;;;;5010391;28;20203;-80
2021/01/20 01:15:31;;;;;;;0.20;0.20;;;1.80;99.90;;;;;;5013308;28;20317;-80
2021/01/20 01:17:57;;;;;;;0.20;0.20;;;1.90;99.90;;;;;;5010263;28;20207;-80
2021/01/20 01:20:22;;;;;;;0.17;0.17;;;1.80;99.90;;;;;;5012266;28;20681;-80
2021/01/20 01:22:48;;;;;;;0.50;0.50;;;1.80;99.90;;;;;;5011667;28;20305;-80
2021/01/20 01:25:13;;;;;;;0.80;0.80;;;1.80;99.90;;;;;;5011473;28;20195;-80
2021/01/20 01:27:39;;;;;;;1.07;0.40;;;2.00;99.90;;;;;;5012892;28;20288;-79
2021/01/20 01:30:05;;;;;;;1.07;0.50;;;2.10;99.90;;;;;;5010173;28;20570;-80
2021/01/20 01:32:31;;;;;;;0.40;0.40;;;2.20;99.90;;;;;;5012342;28;20210;-80
2021/01/20 01:34:56;;;;;;;0.40;0.40;;;2.30;99.90;;;;;;5011446;28;20218;-80
2021/01/20 01:37:22;;;;;;;0.87;0.87;;;2.30;99.90;;;;;;5012188;28;20210;-80
2021/01/20 01:39:47;;;;;;;0.93;0.23;;;2.30;99.90;;;;;;5014452;28;20274;-80
2021/01/20 01:42:13;;;;;;;0.20;0.20;;;2.20;99.90;;;;;;5011281;28;20187;-80
2021/01/20 01:44:39;;;;;;;0.30;0.30;;;2.10;99.90;;;;;;5012500;28;20192;-80
2021/01/20 01:47:05;;;;;;;0.20;0.20;;;2.10;99.90;;;;;;5010954;28;20186;-80
2021/01/20 01:49:31;;;;;;;0.10;0.10;;;2.10;99.90;;;;;;5010954;28;20715;-81
2021/01/20 01:52:00;;;;;;;0.40;0.40;;;2.10;99.90;;;;;;5010306;28;20179;-81
2021/01/20 01:54:26;;;;;;;0.33;0.30;;;2.10;99.90;;;;;;5012641;28;20214;-80
2021/01/20 01:56:52;;;;;;;0.20;0.20;;;2.10;99.90;;;;;;5012054;28;20182;-78
2021/01/20 01:59:18;;;;;;;0.10;0.10;;;2.20;99.90;;;;;;5010871;28;20209;-80
2021/01/20 02:01:43;;;;;;;0.33;0.33;;;2.00;99.90;;;;;;5002552;28;20833;-81
2021/01/20 02:04:09;;;;;;;0.20;0.20;;;2.10;99.90;;;;;;5006534;28;20552;-79
2021/01/20 02:06:35;;;;;;;0.13;0.13;;;2.00;99.90;;;;;;5011361;28;20199;-80
2021/01/20 02:09:01;;;;;;;0.03;0.03;;;2.10;99.90;;;;;;5011405;28;20211;-80
2021/01/20 02:11:53;;;;;;;0.17;0.17;;;2.00;99.90;;;;;;5010489;28;20548;-79
2021/01/20 02:14:25;;;;;;;0.37;0.37;;;1.80;99.90;;;;;;5026684;28;20214;-80
2021/01/20 02:16:59;;;;;;;0.43;0.20;;;1.80;99.90;;;;;;5010583;28;20180;-80
2021/01/20 02:19:54;;;;;;;0.33;0.33;;;1.70;99.90;;;;;;5010761;28;20235;-80
2021/01/20 02:22:32;;;;;;;0.70;0.70;;;1.70;99.90;;;;;;5011431;28;20176;-80
2021/01/20 02:25:13;;;;;;;1.50;0.50;;;1.70;99.90;;;;;;5011997;28;20177;-81
2021/01/20 02:27:57;;;;;;;0.10;0.10;;;1.80;99.90;;;;;;5009936;28;20203;-80
2021/01/20 02:30:24;;;;;;;0.53;0.40;;;1.70;99.90;;;;;;5009747;28;20270;-80
2021/01/20 02:32:53;;;;;;;0.13;0.13;;;1.70;99.90;;;;;;5010022;28;20210;-79
2021/01/20 02:35:22;;;;;;;0.00;0.00;;;1.60;99.90;;;;;;5011055;28;20930;-80
2021/01/20 02:37:49;;;;;;;0.63;0.60;;;1.60;99.90;;;;;;5012472;28;20208;-80
2021/01/20 02:40:15;;;;;;;0.87;0.63;;;1.40;99.90;;;;;;4999397;28;20228;-80
2021/01/20 02:42:44;;;;;;;0.97;0.80;;;1.30;99.90;;;;;;5006906;28;20191;-77
2021/01/20 02:45:11;;;;;;;0.83;0.83;;;1.20;99.90;;;;;;5007573;28;20198;-80
2021/01/20 02:47:37;;;;;;;0.20;0.20;;;1.10;99.90;;;;;;5010358;28;20186;-80
2021/01/20 02:50:05;;;;;;;0.93;0.60;;;1.10;99.90;;;;;;5010252;28;20187;-80
2021/01/20 02:52:34;;;;;;;0.53;0.30;;;1.00;99.90;;;;;;5011387;28;20236;-80
2021/01/20 02:55:03;;;;;;;0.50;0.47;;;1.00;99.90;;;;;;5009268;28;20204;-80
2021/01/20 02:57:32;;;;;;;0.23;0.17;;;0.90;99.90;;;;;;5010131;28;20187;-80
2021/01/20 03:00:00;;;;;;;0.03;0.03;;;0.90;99.90;;;;;;5010664;28;20195;-79
2021/01/20 03:02:29;;;;;;;0.20;0.20;;;1.00;99.90;;;;;;5010803;28;20243;-81
2021/01/20 03:04:58;;;;;;;0.10;0.10;;;1.00;99.90;;;;;;5011283;28;20233;-80
2021/01/20 03:07:26;;;;;;;0.10;0.10;;;1.00;99.90;;;;;;5010627;28;20179;-80
2021/01/20 03:09:51;;;;;;;0.70;0.53;;;0.90;99.90;;;;;;5009600;28;20464;-80
2021/01/20 03:12:21;;;;;;;0.27;0.27;;;0.90;99.90;;;;;;5009973;28;20214;-80
2021/01/20 03:14:47;;;;;;;0.20;0.17;;;0.90;99.90;;;;;;5011368;28;20183;-80
2021/01/20 03:17:12;;;;;;;0.30;0.30;;;1.00;99.90;;;;;;5011446;28;20845;-80
2021/01/20 03:19:38;;;;;;;0.37;0.37;;;1.00;99.90;;;;;;5009183;28;20212;-79
2021/01/20 03:22:04;;;;;;;1.43;0.37;;;1.00;99.90;;;;;;5009935;28;20197;-80
2021/01/20 03:24:29;;;;;;;0.40;0.40;;;1.00;99.90;;;;;;5010130;28;20274;-79
2021/01/20 03:26:55;;;;;;;0.40;0.40;;;1.10;99.90;;;;;;5009715;28;20191;-80
2021/01/20 03:29:21;;;;;;;0.07;0.07;;;1.00;99.90;;;;;;5011066;28;20202;-80
2021/01/20 03:31:46;;;;;;;0.47;0.47;;;1.10;99.90;;;;;;5010869;28;20234;-80
2021/01/20 03:34:12;;;;;;;0.10;0.10;;;1.10;99.90;;;;;;5010982;28;20211;-80
2021/01/20 03:36:38;;;;;;;0.37;0.37;;;1.00;99.90;;;;;;5008897;28;20683;-80
2021/01/20 03:39:03;;;;;;;0.93;0.73;;;1.10;99.90;;;;;;5012829;28;20676;-80
2021/01/20 03:41:29;;;;;;;0.10;0.10;;;1.10;99.90;;;;;;5010333;28;20217;-78
2021/01/20 03:43:54;;;;;;;0.10;0.10;;;1.20;99.90;;;;;;5011194;28;20187;-80
2021/01/20 03:46:20;;;;;;;0.13;0.13;;;1.30;99.90;;;;;;5009628;28;20262;-80
2021/01/20 03:48:45;;;;;;;0.17;0.17;;;1.30;99.90;;;;;;5009987;28;20215;-80
2021/01/20 03:51:11;;;;;;;0.23;0.20;;;1.40;99.90;;;;;;5009108;28;20179;-80
2021/01/20 03:53:36;;;;;;;0.30;0.30;;;1.30;99.90;;;;;;5010141;28;20211;-81
2021/01/20 03:56:02;;;;;;;0.10;0.10;;;1.20;99.90;;;;;;5009104;28;20647;-80
2021/01/20 03:58:28;;;;;;;0.10;0.10;;;1.30;99.90;;;;;;5010968;28;20234;-80
2021/01/20 04:00:53;;;;;;;0.40;0.23;;;1.20;99.90;;;;;;5011475;28;20221;-78
2021/01/20 04:03:19;;;;;;;0.10;0.10;;;1.30;99.90;;;;;;5012617;28;20225;-80
2021/01/20 04:05:45;;;;;;;0.10;0.10;;;1.30;99.90;;;;;;5012858;28;20251;-80
2021/01/20 04:08:10;;;;;;;0.10;0.10;;;1.30;99.90;;;;;;5014169;28;20214;-81
2021/01/20 04:10:36;;;;;;;0.20;0.20;;;1.30;99.90;;;;;;5012386;28;20191;-80
2021/01/20 04:13:01;;;;;;;0.63;0.23;;;1.30;99.90;;;;;;5013852;28;20266;-79
2021/01/20 04:15:27;;;;;;;0.20;0.20;;;1.30;99.90;;;;;;5014551;28;20181;-80
2021/01/20 04:17:52;;;;;;;0.83;0.77;;;1.30;99.90;;;;;;5013096;28;20225;-81
2021/01/20 04:20:18;;;;;;;0.17;0.13;;;1.20;99.90;;;;;;5011257;28;20652;-80
2021/01/20 04:22:43;;;;;;;0.30;0.30;;;1.20;99.90;;;;;;5014308;28;20818;-80
2021/01/20 04:25:11;;;;;;;0.33;0.33;;;1.20;99.90;;;;;;5014047;28;20194;-78
2021/01/20 04:27:37;;;;;;;1.00;0.20;;;1.20;99.90;;;;;;5013952;28;20218;-80
2021/01/20 04:30:04;;;;;;;0.47;0.17;;;1.10;99.90;;;;;;5013543;28;20226;-80
2021/01/20 04:32:29;;;;;;;1.07;1.00;;;1.00;99.90;;;;;;5011407;28;20186;-79
2021/01/20 04:34:55;;;;;;;0.90;0.30;;;1.00;99.90;;;;;;5014437;28;20206;-79
2021/01/20 04:37:20;;;;;;;0.57;0.43;;;0.80;99.90;;;;;;5011540;28;20840;-80
2021/01/20 04:39:46;;;;;;;0.20;0.20;;;0.80;99.90;;;;;;5015653;28;20855;-80
2021/01/20 04:42:13;;;;;;;0.10;0.10;;;0.70;99.90;;;;;;5013340;28;20353;-81
2021/01/20 04:44:38;;;;;;;0.50;0.50;;;0.70;99.90;;;;;;5012668;28;20659;-81
2021/01/20 04:47:05;;;;;;;0.23;0.20;;;0.80;99.90;;;;;;5003458;28;20245;-79
2021/01/20 04:49:34;;;;;;;0.10;0.10;;;0.80;99.90;;;;;;5012112;28;20289;-80
2021/01/20 04:52:01;;;;;;;0.13;0.13;;;0.90;99.90;;;;;;5012733;28;20563;-80
2021/01/20 04:54:29;;;;;;;0.87;0.60;;;1.00;99.90;;;;;;5013782;28;20249;-82
2021/01/20 04:56:56;;;;;;;0.33;0.33;;;1.10;99.90;;;;;;5013327;28;20187;-83
2021/01/20 04:59:27;;;;;;;0.10;0.10;;;1.20;99.90;;;;;;5002523;28;20197;-80
2021/01/20 05:01:52;;;;;;;0.43;0.43;;;1.10;99.90;;;;;;5009883;28;20666;-79
2021/01/20 05:04:19;;;;;;;0.20;0.20;;;1.20;99.90;;;;;;5010566;28;20270;-81
2021/01/20 05:06:45;;;;;;;0.10;0.10;;;1.20;99.90;;;;;;5008791;28;20311;-81
2021/01/20 05:09:10;;;;;;;0.10;0.10;;;1.10;99.90;;;;;;5012438;28;20209;-81
2021/01/20 05:11:41;;;;;;;0.73;0.47;;;1.20;99.90;;;;;;5010657;28;20179;-80
2021/01/20 05:14:12;;;;;;;0.43;0.20;;;1.20;99.90;;;;;;5011575;28;20218;-81
2021/01/20 05:16:37;;;;;;;0.20;0.20;;;1.20;99.90;;;;;;5011377;28;20187;-81
2021/01/20 05:19:04;;;;;;;0.87;0.50;;;1.10;99.90;;;;;;5011625;28;20199;-80
2021/01/20 05:21:29;;;;;;;0.10;0.10;;;1.10;99.90;;;;;;5011733;28;20186;-81
2021/01/20 05:24:19;;;;;;;0.13;0.13;;;1.10;99.90;;;;;;5012337;28;20187;-81
2021/01/20 05:26:45;;;;;;;0.50;0.50;;;1.00;99.90;;;;;;5011828;28;20540;-81
2021/01/20 05:29:11;;;;;;;0.40;0.40;;;1.10;99.90;;;;;;5009073;28;20202;-78
2021/01/20 05:31:36;;;;;;;0.13;0.13;;;1.20;99.90;;;;;;5004619;28;20785;-79
2021/01/20 05:34:02;;;;;;;0.10;0.10;;;1.30;99.90;;;;;;5011569;28;20277;-79
2021/01/20 05:36:27;;;;;;;0.20;0.20;;;1.30;99.90;;;;;;5010298;28;20589;-81
2021/01/20 05:38:54;;;;;;;0.20;0.20;;;1.40;99.90;;;;;;5012747;28;20221;-81
2021/01/20 05:41:30;;;;;;;0.20;0.20;;;1.50;99.90;;;;;;5010567;28;20225;-81
2021/01/20 05:44:12;;;;;;;1.50;0.53;;;1.50;99.90;;;;;;5007595;28;20203;-81
2021/01/20 05:46:40;;;;;;;0.13;0.13;;;1.60;99.90;;;;;;5003929;28;20193;-80
2021/01/20 05:49:06;;;;;;;0.00;0.00;;;1.70;99.90;;;;;;5011689;28;20245;-80
2021/01/20 05:51:43;;;;;;;0.00;0.00;;;1.80;99.90;;;;;;5010067;28;20183;-80
2021/01/20 05:54:09;;;;;;;0.13;0.13;;;1.80;99.90;;;;;;5006341;28;20207;-81
2021/01/20 05:56:35;;;;;;;0.47;0.27;;;1.90;99.90;;;;;;5010462;28;20183;-79
2021/01/20 05:59:09;;;;;;;1.07;0.63;;;1.90;99.90;;;;;;5010637;28;20245;-80
2021/01/20 06:01:35;;;;;;;0.63;0.37;;;1.70;99.90;;;;;;5009748;28;20202;-81
2021/01/20 06:04:00;;;;;;;0.47;0.47;;;1.80;99.90;;;;;;5011088;28;20191;-82
2021/01/20 06:06:26;;;;;;;0.20;0.20;;;1.70;99.90;;;;;;5010322;28;20187;-82
2021/01/20 06:08:52;;;;;;;0.27;0.27;;;1.60;99.90;;;;;;5009740;28;20226;-78
2021/01/20 06:11:18;;;;;;;0.20;0.20;;;1.60;99.90;;;;;;5009979;28;20216;-80
2021/01/20 06:13:44;;;;;;;0.50;0.50;;;1.60;99.90;;;;;;5009359;28;20249;-79
2021/01/20 06:16:14;;;;;;;0.33;0.33;;;1.60;99.90;;;;;;5009865;28;20275;-82
2021/01/20 06:18:47;;;;;;;0.93;0.93;;;1.60;99.90;;;;;;5009841;28;20578;-82
2021/01/20 06:21:14;;;;;;;0.57;0.20;;;1.60;99.90;;;;;;5009695;28;20182;-84
2021/01/20 06:23:47;;;;;;;0.20;0.20;;;1.80;99.90;;;;;;5010125;28;20274;-83
2021/01/20 06:26:14;;;;;;;0.23;0.13;;;1.80;99.90;;;;;;5006461;28;20197;-79
2021/01/20 06:28:47;;;;;;;0.50;0.50;;;1.90;99.90;;;;;;4996605;28;20211;-79
2021/01/20 06:31:14;;;;;;;0.87;0.73;;;1.90;99.90;;;;;;5002642;28;20222;-79
2021/01/20 06:33:40;;;;;;;0.13;0.13;;;2.00;99.90;;;;;;5008816;28;20257;-78
2021/01/20 06:36:05;;;;;;;0.77;0.77;;;2.00;99.90;;;;;;5009765;28;20678;-79
2021/01/20 06:38:32;;;;;;;0.73;0.60;;;2.00;99.90;;;;;;5014929;28;20351;-78
2021/01/20 06:41:07;;;;;;;0.60;0.40;;;2.10;99.90;;;;;;5004062;28;20240;-81
2021/01/20 06:43:40;;;;;;;2.77;1.13;;;2.10;99.90;;;;;;5016084;28;20190;-83
2021/01/20 06:46:12;;;;;;;0.10;0.10;;;2.10;99.90;;;;;;5006653;28;20183;-84
2021/01/20 06:48:55;;;;;;;0.10;0.10;;;2.00;99.90;;;;;;5005341;28;20875;-82
2021/01/20 06:51:25;;;;;;;7.93;0.33;;;2.10;99.90;;;;;;5009033;28;20194;-83
2021/01/20 06:54:07;;;;;;;0.20;0.20;;;2.00;99.90;;;;;;5009361;28;20219;-83
2021/01/20 06:56:49;;;;;;;0.20;0.20;;;2.10;99.90;;;;;;5003348;28;20273;-80
2021/01/20 06:59:16;;;;;;;0.30;0.30;;;2.20;99.90;;;;;;5007676;28;20213;-82
2021/01/20 07:01:42;;;;;;;0.10;0.10;;;2.20;99.90;;;;;;4998015;28;20194;-80
2021/01/20 07:04:08;;;;;;;0.67;0.67;;;2.30;99.90;;;;;;5006392;28;20197;-79
2021/01/20 07:06:37;;;;;;;2.13;0.50;;;2.20;99.90;;;;;;5009193;28;20196;-82
2021/01/20 07:09:09;;;;;;;0.17;0.17;;;2.10;99.90;;;;;;5009263;28;20202;-80
2021/01/20 07:11:59;;;;;;;0.10;0.10;;;2.10;99.90;;;;;;5002795;28;20205;-81
2021/01/20 07:14:31;;;;;;;0.10;0.10;;;2.10;99.90;;;;;;5006855;28;20214;-81
2021/01/20 07:16:57;;;;;;;0.10;0.10;;;2.20;99.90;;;;;;5005967;28;20207;-81
2021/01/20 07:19:24;;;;;;;0.40;0.40;;;2.20;99.90;;;;;;5008223;28;20633;-80
2021/01/20 07:21:50;;;;;;;0.50;0.50;;;2.30;99.90;;;;;;5007043;28;20183;-80
2021/01/20 07:24:15;;;;;;;0.10;0.10;;;2.30;99.90;;;;;;5005818;28;20210;-79
2021/01/20 07:26:41;;;;;;;0.40;0.40;;;2.30;99.90;;;;;;5010448;28;20191;-82
2021/01/20 07:29:17;;;;;;;0.30;0.30;;;2.30;99.90;;;;;;5019760;28;20208;-81
2021/01/20 07:31:47;;;;;;;0.10;0.10;;;2.30;99.90;;;;;;5009376;28;20278;-81
2021/01/20 07:34:13;;;;;;;0.20;0.20;;;2.40;99.90;;;;;;5006930;28;20560;-81
2021/01/20 07:36:38;;;;;;;0.43;0.43;;;2.40;99.90;;;;;;5011039;28;20548;-81
2021/01/20 07:39:21;;;;;;;0.63;0.43;;;2.40;99.90;;;;;;5014187;28;20211;-79
2021/01/20 07:41:57;;;;;;;0.10;0.10;;;2.30;99.90;;;;;;5011025;28;20211;-81
2021/01/20 07:44:24;;;;;;;0.27;0.27;;;2.40;99.90;;;;;;5008907;28;20224;-80
2021/01/20 07:46:57;;;;;;;0.10;0.10;;;2.40;99.90;;;;;;5013213;28;20189;-80
2021/01/20 07:49:22;;;;;;;0.37;0.37;;;2.40;99.90;;;;;;5012369;28;20571;-80
2021/01/20 07:52:04;;;;;;;0.10;0.10;;;2.40;99.90;;;;;;5008487;28;20195;-79
2021/01/20 07:54:48;;;;;;;0.93;0.40;;;2.50;99.90;;;;;;5012975;28;20238;-80
2021/01/20 07:57:18;;;;;;;0.10;0.10;;;2.50;99.90;;;;;;5007754;28;20208;-81
2021/01/20 07:59:44;;;;;;;0.10;0.10;;;2.60;99.90;;;;;;5011257;28;20582;-80
2021/01/20 08:02:10;;;;;;;0.30;0.30;;;2.60;99.90;;;;;;5013985;28;20175;-81
2021/01/20 08:04:36;;;;;;;0.20;0.20;;;2.70;99.90;;;;;;5006668;28;20228;-80
2021/01/20 08:07:03;;;;;;;0.10;0.10;;;2.70;99.90;;;;;;5008688;28;20194;-79
2021/01/20 08:09:43;;;;;;;0.10;0.10;;;2.80;99.90;;;;;;5011088;28;20205;-80
2021/01/20 08:12:30;;;;;;;0.47;0.40;;;2.80;99.90;;;;;;5027149;28;20183;-83
2021/01/20 08:14:56;;;;;;;0.10;0.10;;;2.80;99.90;;;;;;5007499;28;20187;-80
2021/01/20 08:17:23;;;;;;;0.00;0.00;;;2.90;99.90;;;;;;5010955;28;20182;-80
2021/01/20 08:19:49;;;;;;;0.30;0.30;;;3.00;99.90;;;;;;5011059;28;20175;-80
2021/01/20 08:22:16;;;;;;;0.10;0.10;;;3.00;99.90;;;;;;5007886;28;20755;-78
2021/01/20 08:24:50;;;;;;;0.20;0.20;;;3.00;99.90;;;;;;5010972;28;20222;-80
2021/01/20 08:27:24;;;;;;;0.17;0.17;;;3.00;99.90;;;;;;5005563;28;20192;-80
2021/01/20 08:29:51;;;;;;;0.50;0.20;;;3.00;99.90;;;;;;5005275;28;20190;-79
2021/01/20 08:32:17;;;;;;;0.20;0.20;;;3.00;99.90;;;;;;5013069;28;20183;-81
2021/01/20 08:34:45;;;;;;;0.40;0.40;;;3.10;99.90;;;;;;5016047;28;20572;-79
2021/01/20 08:37:17;;;;;;;1.43;1.40;;;3.20;99.90;;;;;;5004175;28;20187;-81
2021/01/20 08:39:57;;;;;;;0.20;0.20;;;3.30;99.90;;;;;;5018369;28;20229;-80
2021/01/20 08:42:32;;;;;;;1.60;0.37;;;3.30;99.90;;;;;;5016605;28;20242;-81
2021/01/20 08:45:19;;;;;;;2.23;0.87;;;3.30;99.90;;;;;;5017302;28;20185;-81
2021/01/20 08:47:50;;;;;;;0.20;0.20;;;3.30;99.90;;;;;;5012912;28;20208;-82
2021/01/20 08:50:37;;;;;;;0.40;0.30;;;3.40;99.90;;;;;;5013839;28;20275;-82
2021/01/20 08:53:05;;;;;;;0.23;0.23;;;3.50;99.90;;;;;;5015834;28;20198;-83
2021/01/20 08:55:39;;;;;;;0.53;0.40;;;3.50;99.90;;;;;;5016121;28;20206;-83
2021/01/20 08:58:18;;;;;;;0.33;0.33;;;3.60;99.90;;;;;;5015623;28;20202;-83
2021/01/20 09:00:45;;;;;;;0.10;0.10;;;3.60;99.90;;;;;;5014902;28;20542;-82
2021/01/20 09:03:12;;;;;;;3.93;1.53;;;3.60;99.90;;;;;;5014369;28;20188;-83
2021/01/20 09:05:37;;;;;;;1.33;0.73;;;3.60;99.90;;;;;;5014171;28;20183;-82
2021/01/20 09:08:03;;;;;;;1.13;0.80;;;3.70;99.90;;;;;;5013129;28;20217;-84
2021/01/20 09:10:29;;;;;;;0.50;0.50;;;3.80;99.90;;;;;;5014930;28;20211;-83
2021/01/20 09:12:54;;;;;;;0.60;0.60;;;3.90;99.90;;;;;;5015506;28;20212;-84
2021/01/20 09:15:20;;;;;;;1.03;0.47;;;3.90;99.90;;;;;;5013905;28;20218;-83
2021/01/20 09:17:45;;;;;;;0.10;0.10;;;4.00;99.90;;;;;;5016457;28;20231;-82
2021/01/20 09:20:11;;;;;;;0.10;0.10;;;4.00;99.90;;;;;;5012373;28;20201;-83
2021/01/20 09:22:39;;;;;;;1.30;0.73;;;4.00;99.90;;;;;;5014005;28;20185;-83
2021/01/20 09:25:05;;;;;;;0.40;0.40;;;4.10;99.90;;;;;;5009906;28;20178;-82
2021/01/20 09:27:30;;;;;;;2.33;1.03;;;4.10;99.90;;;;;;5010549;28;20189;-84
2021/01/20 09:29:56;;;;;;;1.47;1.37;;;4.20;99.90;;;;;;4999798;28;20534;-84
2021/01/20 09:32:21;;;;;;;0.23;0.23;;;4.30;99.90;;;;;;5012369;28;20363;-81
2021/01/20 09:34:47;;;;;;;0.67;0.50;;;4.40;99.90;;;;;;5012438;28;20219;-83
2021/01/20 09:37:12;;;;;;;0.10;0.10;;;4.40;99.90;;;;;;5014633;28;20188;-83
2021/01/20 09:39:38;;;;;;;9.23;0.87;;;4.50;99.90;;;;;;5018318;28;20225;-83
2021/01/20 09:42:04;;;;;;;1.17;0.30;;;4.50;99.90;;;;;;5014321;28;20188;-83
2021/01/20 09:44:29;;;;;;;0.27;0.27;;;4.50;99.90;;;;;;5014661;28;20190;-84
2021/01/20 09:46:55;;;;;;;0.10;0.10;;;4.70;99.90;;;;;;5009158;28;20722;-84
2021/01/20 09:49:20;;;;;;;0.10;0.10;;;4.70;99.90;;;;;;5008507;28;20704;-83
2021/01/20 09:51:46;;;;;;;0.20;0.20;;;4.90;99.90;;;;;;5013685;28;20663;-82
2021/01/20 09:54:11;;;;;;;0.10;0.10;;;5.00;99.90;;;;;;5012360;28;20252;-84
2021/01/20 09:56:37;;;;;;;5.00;0.20;;;5.00;99.90;;;;;;5015244;28;20213;-82
2021/01/20 09:59:02;;;;;;;0.13;0.13;;;5.10;99.90;;;;;;5014992;28;20205;-81
2021/01/20 10:01:28;;;;;;;0.13;0.10;;;5.40;99.90;;;;;;5007001;28;20195;-82
2021/01/20 10:03:54;;;;;;;0.10;0.10;;;5.60;99.90;;;;;;5007140;28;20277;-83
2021/01/20 10:06:20;;;;;;;0.20;0.20;;;5.50;99.90;;;;;;5014098;28;20190;-83
2021/01/20 10:08:46;;;;;;;0.53;0.53;;;5.70;99.90;;;;;;5012949;28;20652;-83
2021/01/20 10:11:11;;;;;;;0.77;0.33;;;5.60;99.90;;;;;;5013994;28;20197;-83
2021/01/20 10:13:37;;;;;;;7.20;2.80;;;5.50;99.90;;;;;;5014273;28;20269;-84
2021/01/20 10:16:03;;;;;;;0.20;0.20;;;5.40;99.90;;;;;;5012630;28;20191;-83
2021/01/20 10:18:28;;;;;;;0.63;0.63;;;5.40;99.90;;;;;;5016288;28;20216;-81
2021/01/20 10:20:54;;;;;;;0.30;0.30;;;5.30;99.90;;;;;;5010892;28;20312;-82
2021/01/20 10:23:19;;;;;;;0.20;0.20;;;5.30;99.90;;;;;;5011413;28;20186;-82
2021/01/20 10:25:46;;;;;;;0.57;0.10;;;5.50;99.90;;;;;;5014706;28;20187;-81
2021/01/20 10:28:13;;;;;;;0.30;0.27;;;5.50;99.90;;;;;;5009504;28;20229;-84
2021/01/20 10:30:39;;;;;;;0.23;0.23;;;5.60;99.90;;;;;;5011797;28;20190;-81
2021/01/20 10:33:04;;;;;;;1.23;0.50;;;5.50;99.90;;;;;;5008632;28;20213;-80
2021/01/20 10:35:31;;;;;;;0.77;0.60;;;5.30;99.90;;;;;;5012565;28;20186;-84
2021/01/20 10:37:57;;;;;;;0.10;0.10;;;5.40;99.90;;;;;;5011254;28;20202;-81
2021/01/20 10:40:23;;;;;;;0.30;0.30;;;5.40;99.90;;;;;;5009099;28;20206;-79
2021/01/20 10:42:49;;;;;;;0.10;0.10;;;5.60;99.90;;;;;;5010776;28;20679;-81
2021/01/20 10:45:15;;;;;;;0.10;0.10;;;5.70;99.90;;;;;;5009276;28;20223;-82
2021/01/20 10:47:41;;;;;;;0.30;0.30;;;5.60;99.90;;;;;;5012866;28;20218;-83
2021/01/20 10:50:07;;;;;;;0.10;0.10;;;5.80;99.90;;;;;;5011309;28;20217;-83
2021/01/20 10:52:32;;;;;;;0.57;0.50;;;5.90;99.90;;;;;;5010714;28;20244;-81
2021/01/20 10:54:58;;;;;;;0.47;0.43;;;5.80;99.90;;;;;;5009883;28;20197;-83
2021/01/20 10:57:23;;;;;;;0.40;0.40;;;5.90;99.90;;;;;;5012982;28;20191;-82
2021/01/20 10:59:49;;;;;;;0.10;0.10;;;5.80;99.90;;;;;;5010167;28;20205;-81
2021/01/20 11:02:15;;;;;;;0.17;0.17;;;6.10;99.90;;;;;;5009232;28;20237;-80
2021/01/20 11:04:40;;;;;;;0.10;0.10;;;6.30;99.90;;;;;;5009844;28;20191;-83
2021/01/20 11:07:06;;;;;;;0.30;0.30;;;6.50;99.90;;;;;;5008358;28;20662;-80
2021/01/20 11:09:32;;;;;;;1.60;0.63;;;6.70;99.90;;;;;;5007581;28;20222;-80
2021/01/20 11:11:58;;;;;;;0.17;0.17;;;6.80;99.90;;;;;;5010463;28;20191;-81
2021/01/20 11:14:25;;;;;;;0.40;0.40;;;6.80;99.90;;;;;;5010132;28;20222;-80
2021/01/20 11:16:52;;;;;;;0.10;0.10;;;6.70;99.90;;;;;;5008871;28;20195;-80
2021/01/20 11:19:17;;;;;;;0.30;0.30;;;7.00;99.90;;;;;;5008166;28;20195;-80
2021/01/20 11:21:43;;;;;;;0.30;0.30;;;7.10;99.90;;;;;;5007929;28;20293;-80
2021/01/20 11:24:09;;;;;;;0.20;0.20;;;7.30;99.90;;;;;;5006958;28;20210;-81
2021/01/20 11:26:35;;;;;;;0.40;0.40;;;7.40;99.90;;;;;;5005054;28;20281;-79
2021/01/20 11:29:03;;;;;;;0.37;0.37;;;7.50;99.90;;;;;;5011410;28;20226;-82
2021/01/20 11:31:28;;;;;;;0.30;0.30;;;7.40;99.90;;;;;;5009365;28;20667;-81
2021/01/20 11:33:54;;;;;;;0.30;0.30;;;7.60;99.90;;;;;;5011942;28;20219;-81
2021/01/20 11:36:20;;;;;;;0.27;0.27;;;7.70;99.90;;;;;;5001918;28;20239;-80
2021/01/20 11:38:46;;;;;;;0.20;0.20;;;7.70;99.90;;;;;;5006765;28;20251;-82
2021/01/20 11:41:12;;;;;;;0.10;0.10;;;7.80;99.90;;;;;;5005475;28;20194;-79
2021/01/20 11:43:37;;;;;;;0.47;0.47;;;7.90;99.90;;;;;;5012284;28;20187;-81
2021/01/20 11:46:03;;;;;;;0.10;0.10;;;8.00;99.90;;;;;;5010959;28;20538;-81
2021/01/20 11:48:29;;;;;;;0.47;0.40;;;8.00;99.90;;;;;;5009735;28;20211;-81
2021/01/20 11:50:54;;;;;;;0.30;0.30;;;7.70;99.90;;;;;;5002387;28;20192;-81
2021/01/20 11:53:21;;;;;;;0.10;0.10;;;7.50;99.90;;;;;;5008676;28;20202;-81
2021/01/20 11:55:47;;;;;;;0.17;0.17;;;7.50;99.90;;;;;;5005650;28;20549;-81
2021/01/20 11:58:12;;;;;;;0.20;0.20;;;7.10;99.90;;;;;;5009114;28;20211;-82
2021/01/20 12:00:38;;;;;;;0.30;0.30;;;7.10;99.90;;;;;;5011639;28;20285;-81
2021/01/20 12:03:04;;;;;;;0.20;0.20;;;7.00;99.90;;;;;;5009169;28;20184;-79
2021/01/20 12:05:29;;;;;;;0.20;0.10;;;6.90;99.90;;;;;;5013181;28;20183;-83
2021/01/20 12:07:55;;;;;;;0.63;0.53;;;7.10;99.90;;;;;;5008398;28;20254;-82
2021/01/20 12:10:20;;;;;;;0.43;0.33;;;7.20;99.90;;;;;;5006401;28;20191;-82
2021/01/20 12:12:46;;;;;;;0.33;0.33;;;7.40;99.90;;;;;;5010520;28;20241;-82
2021/01/20 12:15:12;;;;;;;0.30;0.30;;;7.20;99.90;;;;;;5010855;28;20178;-90
2021/01/20 12:17:38;;;;;;;0.17;0.13;;;7.30;99.90;;;;;;5012675;28;20189;-82
2021/01/20 12:20:05;;;;;;;5.53;0.53;;;7.40;99.90;;;;;;5011264;28;20186;-83
2021/01/20 12:22:30;;;;;;;0.30;0.30;;;7.50;99.90;;;;;;5013817;28;20186;-83
2021/01/20 12:24:56;;;;;;;0.20;0.20;;;7.70;99.90;;;;;;5009293;28;20184;-83
2021/01/20 12:27:22;;;;;;;0.10;0.10;;;7.80;99.90;;;;;;5010963;28;20596;-82
2021/01/20 12:29:47;;;;;;;0.43;0.43;;;8.00;99.90;;;;;;5007028;28;20190;-80
2021/01/20 12:32:13;;;;;;;0.30;0.30;;;8.10;99.90;;;;;;5008095;28;20555;-81
2021/01/20 12:34:39;;;;;;;1.17;0.63;;;8.30;99.90;;;;;;5013688;28;20270;-81
2021/01/20 12:37:05;;;;;;;1.13;1.13;;;8.30;99.90;;;;;;5012117;28;20286;-81
2021/01/20 12:39:30;;;;;;;0.20;0.20;;;8.50;99.90;;;;;;5009762;28;20231;-80
2021/01/20 12:41:56;;;;;;;0.23;0.23;;;8.60;99.90;;;;;;5010154;28;20204;-80
2021/01/20 12:44:22;;;;;;;0.27;0.27;;;8.60;99.90;;;;;;5012367;28;20191;-80
2021/01/20 12:46:47;;;;;;;3.00;1.20;;;8.50;99.90;;;;;;5014822;28;20223;-83
2021/01/20 12:49:13;;;;;;;0.40;0.40;;;8.50;99.90;;;;;;5016086;28;20211;-83
2021/01/20 12:51:38;;;;;;;0.30;0.30;;;8.50;99.90;;;;;;5012080;28;20215;-83
2021/01/20 12:54:04;;;;;;;0.63;0.63;;;8.40;99.90;;;;;;5012227;28;20210;-81
2021/01/20 12:56:30;;;;;;;0.13;0.13;;;8.40;99.90;;;;;;5029721;28;20211;-83
2021/01/20 12:58:57;;;;;;;0.50;0.50;;;8.40;99.90;;;;;;5012273;28;20229;-83